Miami International Airport
KMIA : now visible

Airfield :











YOU CAN JOIN US ON...

 
LOGIN :

Register | Disclaimer

   EN    FR    IT 

 









Legend :    VFR   Marginal VFR   IFR   Intensive IFR   Very Intensive IFR
Visi :
Ceiling :
>= 8 km
>= 3000ft
5 to 8 km
1000 to 3000 ft
1500m to 5 km
500 to 1000 ft
800 to 1500m
200 to 500 ft
< 800m
< 200 ft
Symbols :   Thunderstorms  Fog  Heavy snow  Heavy precipitations  Wind > 20 kt






- Airport Elevation : 8 ft
- IATA code : MIA


KMIA - Miami International

CURRENT METAR :
  • 291353Z 00000KT 10SM FEW024 20/15 A2997 RMK AO2 SLP149 T02000150

EXPIRED METARs :
  • 291253Z 00000KT 10SM FEW022 18/14 A2996 RMK AO2 SLP147 T01780144
  • 291153Z 00000KT 10SM FEW022 17/14 A2994 RMK AO2 SLP139 T01670139 10189 20167 53004

TAF KMIA
Valid from the 29 at 13:00 until the 30 at 18:00 UTC


291316Z 2913/3018 VRB05KT P6SM FEW020 SCT110
FM291700 21010KT P6SM SCT025 BKN040
FM300100 23005KT P6SM SCT025 BKN040 OVC100
FM300600 25005KT P6SM VCSH SCT025 OVC040
FM301200 31007KT P6SM FEW025 SCT040



MET'MAP, your aeronautical weather chart ! - Copyright ORBIFLY December 2007 - Disclaimer

ORBIFLY MET'MAP TEAM :

Programming & Development : Alexandra Zaïnal
Concept & original design : Baudouin d'Aumeries
Assistance for programming : Marc-Olivier Méhu
Technical & hardware support : Manuel Goepfert

Contact : metmap@orbifly.com




SOURCES & CREDITS :

   NOAA       Earth
Advisory